sensor_id;sensor_type;location;lat;lon;timestamp;pressure;altitude;pressure_sealevel;temperature
63158;BMP280;49381;49.338;8.794;2022-12-15T00:00:51;99173.41;;;1.32
63158;BMP280;49381;49.338;8.794;2022-12-15T00:02:51;99170.94;;;1.34
63158;BMP280;49381;49.338;8.794;2022-12-15T00:04:51;99174.97;;;1.29
63158;BMP280;49381;49.338;8.794;2022-12-15T00:06:52;99173.25;;;1.26
63158;BMP280;49381;49.338;8.794;2022-12-15T00:08:52;99182.31;;;1.23
63158;BMP280;49381;49.338;8.794;2022-12-15T00:10:53;99189.91;;;1.26
63158;BMP280;49381;49.338;8.794;2022-12-15T00:12:53;99194.09;;;1.28
63158;BMP280;49381;49.338;8.794;2022-12-15T00:14:53;99189.06;;;1.25
63158;BMP280;49381;49.338;8.794;2022-12-15T00:16:55;99193.00;;;1.18
63158;BMP280;49381;49.338;8.794;2022-12-15T00:18:55;99192.97;;;1.16
63158;BMP280;49381;49.338;8.794;2022-12-15T00:20:56;99195.38;;;1.13
63158;BMP280;49381;49.338;8.794;2022-12-15T00:22:56;99197.03;;;1.13
63158;BMP280;49381;49.338;8.794;2022-12-15T00:24:57;99196.22;;;1.14
63158;BMP280;49381;49.338;8.794;2022-12-15T00:26:57;99198.78;;;1.17
63158;BMP280;49381;49.338;8.794;2022-12-15T00:28:57;99185.53;;;1.19
63158;BMP280;49381;49.338;8.794;2022-12-15T00:30:58;99195.38;;;1.13
63158;BMP280;49381;49.338;8.794;2022-12-15T00:33:06;99192.16;;;1.17
63158;BMP280;49381;49.338;8.794;2022-12-15T00:35:07;99207.13;;;1.17
63158;BMP280;49381;49.338;8.794;2022-12-15T00:37:08;99208.91;;;1.21
63158;BMP280;49381;49.338;8.794;2022-12-15T00:39:08;99214.72;;;1.22
63158;BMP280;49381;49.338;8.794;2022-12-15T00:41:09;99210.50;;;1.19
63158;BMP280;49381;49.338;8.794;2022-12-15T00:43:09;99207.09;;;1.16
63158;BMP280;49381;49.338;8.794;2022-12-15T00:45:10;99214.72;;;1.20
63158;BMP280;49381;49.338;8.794;2022-12-15T00:47:10;99228.88;;;1.21
63158;BMP280;49381;49.338;8.794;2022-12-15T00:49:12;99229.81;;;1.26
63158;BMP280;49381;49.338;8.794;2022-12-15T00:51:13;99231.38;;;1.21
63158;BMP280;49381;49.338;8.794;2022-12-15T00:53:13;99227.34;;;1.26
63158;BMP280;49381;49.338;8.794;2022-12-15T00:55:14;99233.19;;;1.28
63158;BMP280;49381;49.338;8.794;2022-12-15T00:57:14;99234.09;;;1.30
63158;BMP280;49381;49.338;8.794;2022-12-15T00:59:15;99237.44;;;1.30
63158;BMP280;49381;49.338;8.794;2022-12-15T01:01:16;99241.63;;;1.31
63158;BMP280;49381;49.338;8.794;2022-12-15T01:03:18;99248.22;;;1.29
63158;BMP280;49381;49.338;8.794;2022-12-15T01:05:20;99254.69;;;1.23
63158;BMP280;49381;49.338;8.794;2022-12-15T01:07:21;99257.91;;;1.19
63158;BMP280;49381;49.338;8.794;2022-12-15T01:09:21;99254.53;;;1.17
63158;BMP280;49381;49.338;8.794;2022-12-15T01:11:22;99262.25;;;1.25
63158;BMP280;49381;49.338;8.794;2022-12-15T01:13:22;99266.44;;;1.25
63158;BMP280;49381;49.338;8.794;2022-12-15T01:15:22;99265.38;;;1.18
63158;BMP280;49381;49.338;8.794;2022-12-15T01:17:23;99258.81;;;1.21
63158;BMP280;49381;49.338;8.794;2022-12-15T01:19:24;99265.31;;;1.15
63158;BMP280;49381;49.338;8.794;2022-12-15T01:21:25;99269.25;;;1.07
63158;BMP280;49381;49.338;8.794;2022-12-15T01:23:26;99256.63;;;1.01
63158;BMP280;49381;49.338;8.794;2022-12-15T01:25:26;99267.72;;;0.83
63158;BMP280;49381;49.338;8.794;2022-12-15T01:27:27;99267.91;;;0.89
63158;BMP280;49381;49.338;8.794;2022-12-15T01:29:27;99261.25;;;0.89
63158;BMP280;49381;49.338;8.794;2022-12-15T01:31:27;99257.19;;;0.93
63158;BMP280;49381;49.338;8.794;2022-12-15T01:33:28;99254.75;;;0.94
63158;BMP280;49381;49.338;8.794;2022-12-15T01:35:28;99262.91;;;0.89
63158;BMP280;49381;49.338;8.794;2022-12-15T01:37:30;99273.38;;;0.76
63158;BMP280;49381;49.338;8.794;2022-12-15T01:39:30;99274.34;;;0.81
63158;BMP280;49381;49.338;8.794;2022-12-15T01:41:30;99273.72;;;0.89
63158;BMP280;49381;49.338;8.794;2022-12-15T01:43:33;99280.47;;;0.92
63158;BMP280;49381;49.338;8.794;2022-12-15T01:45:47;99283.13;;;0.98
63158;BMP280;49381;49.338;8.794;2022-12-15T01:47:48;99281.47;;;0.98
63158;BMP280;49381;49.338;8.794;2022-12-15T01:49:50;99281.69;;;1.05
63158;BMP280;49381;49.338;8.794;2022-12-15T01:51:55;99285.06;;;1.07
63158;BMP280;49381;49.338;8.794;2022-12-15T01:54:02;99276.56;;;1.01
63158;BMP280;49381;49.338;8.794;2022-12-15T01:56:05;99280.72;;;1.00
63158;BMP280;49381;49.338;8.794;2022-12-15T01:58:08;99283.06;;;0.95
63158;BMP280;49381;49.338;8.794;2022-12-15T02:00:12;99283.84;;;0.94
63158;BMP280;49381;49.338;8.794;2022-12-15T02:02:13;99280.72;;;1.00
63158;BMP280;49381;49.338;8.794;2022-12-15T02:04:15;99286.69;;;1.05
63158;BMP280;49381;49.338;8.794;2022-12-15T02:06:17;99287.44;;;1.03
63158;BMP280;49381;49.338;8.794;2022-12-15T02:08:17;99287.28;;;0.99
63158;BMP280;49381;49.338;8.794;2022-12-15T02:10:20;99288.81;;;0.94
63158;BMP280;49381;49.338;8.794;2022-12-15T02:12:26;99281.81;;;0.81
63158;BMP280;49381;49.338;8.794;2022-12-15T02:14:42;99293.66;;;0.88
63158;BMP280;49381;49.338;8.794;2022-12-15T02:16:56;99287.00;;;0.88
63158;BMP280;49381;49.338;8.794;2022-12-15T02:19:09;99295.56;;;0.96
63158;BMP280;49381;49.338;8.794;2022-12-15T02:21:16;99296.50;;;1.00
63158;BMP280;49381;49.338;8.794;2022-12-15T02:23:40;99296.72;;;0.79
63158;BMP280;49381;49.338;8.794;2022-12-15T02:26:00;99291.09;;;0.85
63158;BMP280;49381;49.338;8.794;2022-12-15T02:28:09;99291.84;;;0.82
63158;BMP280;49381;49.338;8.794;2022-12-15T02:30:35;99289.47;;;0.87
63158;BMP280;49381;49.338;8.794;2022-12-15T02:32:42;99288.81;;;0.94
63158;BMP280;49381;49.338;8.794;2022-12-15T02:34:48;99293.09;;;0.98
63158;BMP280;49381;49.338;8.794;2022-12-15T02:36:52;99283.22;;;1.00
63158;BMP280;49381;49.338;8.794;2022-12-15T02:38:53;99297.41;;;1.03
63158;BMP280;49381;49.338;8.794;2022-12-15T02:40:56;99286.69;;;1.05
63158;BMP280;49381;49.338;8.794;2022-12-15T02:42:57;99291.78;;;1.10
63158;BMP280;49381;49.338;8.794;2022-12-15T02:45:02;99291.88;;;1.14
63158;BMP280;49381;49.338;8.794;2022-12-15T02:47:16;99290.28;;;1.16
63158;BMP280;49381;49.338;8.794;2022-12-15T02:49:21;99302.66;;;1.12
63158;BMP280;49381;49.338;8.794;2022-12-15T02:51:42;99307.25;;;0.99
63158;BMP280;49381;49.338;8.794;2022-12-15T02:54:02;99313.16;;;1.00
63158;BMP280;49381;49.338;8.794;2022-12-15T02:56:11;99312.44;;;1.04
63158;BMP280;49381;49.338;8.794;2022-12-15T02:58:19;99321.59;;;1.05
63158;BMP280;49381;49.338;8.794;2022-12-15T03:00:22;99309.94;;;1.04
63158;BMP280;49381;49.338;8.794;2022-12-15T03:02:26;99322.22;;;0.99
63158;BMP280;49381;49.338;8.794;2022-12-15T03:04:27;99316.31;;;0.95
63158;BMP280;49381;49.338;8.794;2022-12-15T03:06:28;99313.84;;;0.95
63158;BMP280;49381;49.338;8.794;2022-12-15T03:08:28;99327.88;;;0.92
63158;BMP280;49381;49.338;8.794;2022-12-15T03:10:29;99324.53;;;0.91
63158;BMP280;49381;49.338;8.794;2022-12-15T03:12:29;99328.53;;;0.86
63158;BMP280;49381;49.338;8.794;2022-12-15T03:14:29;99324.44;;;0.88
63158;BMP280;49381;49.338;8.794;2022-12-15T03:16:30;99333.81;;;0.97
63158;BMP280;49381;49.338;8.794;2022-12-15T03:18:31;99336.41;;;1.00
63158;BMP280;49381;49.338;8.794;2022-12-15T03:20:32;99325.69;;;1.03
63158;BMP280;49381;49.338;8.794;2022-12-15T03:22:32;99327.44;;;1.06
63158;BMP280;49381;49.338;8.794;2022-12-15T03:24:32;99325.78;;;1.06
63158;BMP280;49381;49.338;8.794;2022-12-15T03:26:33;99327.50;;;1.09
63158;BMP280;49381;49.338;8.794;2022-12-15T03:28:33;99328.34;;;1.09
63158;BMP280;49381;49.338;8.794;2022-12-15T03:30:34;99333.44;;;1.12
63158;BMP280;49381;49.338;8.794;2022-12-15T03:32:34;99333.53;;;1.15
63158;BMP280;49381;49.338;8.794;2022-12-15T03:34:36;99330.28;;;1.19
63158;BMP280;49381;49.338;8.794;2022-12-15T03:36:36;99332.75;;;1.18
63158;BMP280;49381;49.338;8.794;2022-12-15T03:38:36;99335.28;;;1.19
63158;BMP280;49381;49.338;8.794;2022-12-15T03:40:37;99327.84;;;1.21
63158;BMP280;49381;49.338;8.794;2022-12-15T03:42:37;99331.06;;;1.17
63158;BMP280;49381;49.338;8.794;2022-12-15T03:44:37;99341.16;;;1.20
63158;BMP280;49381;49.338;8.794;2022-12-15T03:46:38;99346.03;;;1.17
63158;BMP280;49381;49.338;8.794;2022-12-15T03:48:38;99346.88;;;1.17
63158;BMP280;49381;49.338;8.794;2022-12-15T03:50:40;99345.03;;;1.10
63158;BMP280;49381;49.338;8.794;2022-12-15T03:52:40;99343.84;;;0.98
63158;BMP280;49381;49.338;8.794;2022-12-15T03:54:40;99350.28;;;0.90
63158;BMP280;49381;49.338;8.794;2022-12-15T03:56:41;99351.28;;;0.97
63158;BMP280;49381;49.338;8.794;2022-12-15T03:58:41;99353.13;;;1.03
63158;BMP280;49381;49.338;8.794;2022-12-15T04:00:41;99352.38;;;1.04
63158;BMP280;49381;49.338;8.794;2022-12-15T04:02:42;99364.59;;;0.97
63158;BMP280;49381;49.338;8.794;2022-12-15T04:04:43;99367.88;;;0.95
63158;BMP280;49381;49.338;8.794;2022-12-15T04:06:44;99356.38;;;1.00
63158;BMP280;49381;49.338;8.794;2022-12-15T04:08:45;99354.75;;;1.01
63158;BMP280;49381;49.338;8.794;2022-12-15T04:10:45;99346.47;;;1.02
63158;BMP280;49381;49.338;8.794;2022-12-15T04:12:45;99337.25;;;1.00
63158;BMP280;49381;49.338;8.794;2022-12-15T04:14:46;99338.94;;;1.01
63158;BMP280;49381;49.338;8.794;2022-12-15T04:16:46;99339.94;;;1.07
63158;BMP280;49381;49.338;8.794;2022-12-15T04:18:47;99353.06;;;1.00
63158;BMP280;49381;49.338;8.794;2022-12-15T04:20:47;99360.59;;;1.02
63158;BMP280;49381;49.338;8.794;2022-12-15T04:22:49;99353.97;;;1.04
63158;BMP280;49381;49.338;8.794;2022-12-15T04:24:50;99355.72;;;1.06
63158;BMP280;49381;49.338;8.794;2022-12-15T04:26:50;99354.75;;;1.01
63158;BMP280;49381;49.338;8.794;2022-12-15T04:28:50;99366.53;;;1.05
63158;BMP280;49381;49.338;8.794;2022-12-15T04:30:53;99367.09;;;0.97
63158;BMP280;49381;49.338;8.794;2022-12-15T04:32:54;99362.06;;;0.96
63158;BMP280;49381;49.338;8.794;2022-12-15T04:34:54;99370.38;;;0.95
63158;BMP280;49381;49.338;8.794;2022-12-15T04:36:55;99377.66;;;0.89
63158;BMP280;49381;49.338;8.794;2022-12-15T04:38:57;99382.66;;;0.89
63158;BMP280;49381;49.338;8.794;2022-12-15T04:40:58;99384.38;;;0.90
63158;BMP280;49381;49.338;8.794;2022-12-15T04:42:58;99389.28;;;0.88
63158;BMP280;49381;49.338;8.794;2022-12-15T04:45:01;99385.00;;;0.84
63158;BMP280;49381;49.338;8.794;2022-12-15T04:47:02;99372.47;;;0.81
63158;BMP280;49381;49.338;8.794;2022-12-15T04:49:02;99374.69;;;0.73
63158;BMP280;49381;49.338;8.794;2022-12-15T04:51:02;99383.94;;;0.76
63158;BMP280;49381;49.338;8.794;2022-12-15T04:53:07;99383.78;;;0.71
63158;BMP280;49381;49.338;8.794;2022-12-15T04:55:08;99386.81;;;0.61
63158;BMP280;49381;49.338;8.794;2022-12-15T04:57:09;99395.19;;;0.64
63158;BMP280;49381;49.338;8.794;2022-12-15T04:59:09;99398.81;;;0.74
63158;BMP280;49381;49.338;8.794;2022-12-15T05:01:09;99394.81;;;0.78
63158;BMP280;49381;49.338;8.794;2022-12-15T05:03:12;99400.78;;;0.83
63158;BMP280;49381;49.338;8.794;2022-12-15T05:05:12;99400.06;;;0.87
63158;BMP280;49381;49.338;8.794;2022-12-15T05:07:13;99383.50;;;0.89
63158;BMP280;49381;49.338;8.794;2022-12-15T05:09:14;99383.56;;;0.91
63158;BMP280;49381;49.338;8.794;2022-12-15T05:11:15;99389.53;;;0.96
63158;BMP280;49381;49.338;8.794;2022-12-15T05:13:16;99382.91;;;0.98
63158;BMP280;49381;49.338;8.794;2022-12-15T05:15:16;99381.31;;;1.00
63158;BMP280;49381;49.338;8.794;2022-12-15T05:17:16;99389.59;;;0.99
63158;BMP280;49381;49.338;8.794;2022-12-15T05:19:17;99390.47;;;0.73
63158;BMP280;49381;49.338;8.794;2022-12-15T05:21:17;99384.75;;;0.75
63158;BMP280;49381;49.338;8.794;2022-12-15T05:23:18;99375.75;;;0.80
63158;BMP280;49381;49.338;8.794;2022-12-15T05:25:18;99372.31;;;0.77
63158;BMP280;49381;49.338;8.794;2022-12-15T05:27:20;99383.09;;;0.76
63158;BMP280;49381;49.338;8.794;2022-12-15T05:29:20;99378.31;;;0.83
63158;BMP280;49381;49.338;8.794;2022-12-15T05:31:21;99373.56;;;0.63
63158;BMP280;49381;49.338;8.794;2022-12-15T05:33:21;99373.81;;;0.71
63158;BMP280;49381;49.338;8.794;2022-12-15T05:35:21;99379.50;;;0.67
63158;BMP280;49381;49.338;8.794;2022-12-15T05:37:22;99385.16;;;0.61
63158;BMP280;49381;49.338;8.794;2022-12-15T05:39:23;99399.09;;;0.55
63158;BMP280;49381;49.338;8.794;2022-12-15T05:41:23;99407.44;;;0.57
63158;BMP280;49381;49.338;8.794;2022-12-15T05:43:25;99400.84;;;0.59
63158;BMP280;49381;49.338;8.794;2022-12-15T05:45:26;99411.78;;;0.62
63158;BMP280;49381;49.338;8.794;2022-12-15T05:47:26;99410.13;;;0.63
63158;BMP280;49381;49.338;8.794;2022-12-15T05:49:27;99409.38;;;0.65
63158;BMP280;49381;49.338;8.794;2022-12-15T05:51:27;99406.88;;;0.65
63158;BMP280;49381;49.338;8.794;2022-12-15T05:53:27;99404.91;;;0.55
63158;BMP280;49381;49.338;8.794;2022-12-15T05:55:28;99408.78;;;0.46
63158;BMP280;49381;49.338;8.794;2022-12-15T05:57:28;99413.69;;;0.45
63158;BMP280;49381;49.338;8.794;2022-12-15T05:59:30;99413.00;;;0.49
63158;BMP280;49381;49.338;8.794;2022-12-15T06:01:32;99410.69;;;0.28
63158;BMP280;49381;49.338;8.794;2022-12-15T06:03:33;99422.91;;;0.21
63158;BMP280;49381;49.338;8.794;2022-12-15T06:05:33;99418.31;;;0.33
63158;BMP280;49381;49.338;8.794;2022-12-15T06:07:34;99419.22;;;0.35
63158;BMP280;49381;49.338;8.794;2022-12-15T06:09:40;99421.56;;;0.30
63158;BMP280;49381;49.338;8.794;2022-12-15T06:11:48;99417.41;;;0.31
63158;BMP280;49381;49.338;8.794;2022-12-15T06:13:54;99415.72;;;0.30
63158;BMP280;49381;49.338;8.794;2022-12-15T06:16:01;99426.16;;;0.45
63158;BMP280;49381;49.338;8.794;2022-12-15T06:18:01;99435.59;;;0.54
63158;BMP280;49381;49.338;8.794;2022-12-15T06:20:02;99439.09;;;0.59
63158;BMP280;49381;49.338;8.794;2022-12-15T06:22:03;99442.69;;;0.67
63158;BMP280;49381;49.338;8.794;2022-12-15T06:24:04;99440.19;;;0.67
63158;BMP280;49381;49.338;8.794;2022-12-15T06:26:12;99437.69;;;0.67
63158;BMP280;49381;49.338;8.794;2022-12-15T06:28:15;99445.28;;;0.70
63158;BMP280;49381;49.338;8.794;2022-12-15T06:30:16;99435.31;;;0.70
63158;BMP280;49381;49.338;8.794;2022-12-15T06:32:18;99436.72;;;0.62
63158;BMP280;49381;49.338;8.794;2022-12-15T06:34:19;99434.22;;;0.36
63158;BMP280;49381;49.338;8.794;2022-12-15T06:36:27;99434.34;;;0.41
63158;BMP280;49381;49.338;8.794;2022-12-15T06:38:27;99432.28;;;0.54
63158;BMP280;49381;49.338;8.794;2022-12-15T06:40:28;99419.25;;;0.62
63158;BMP280;49381;49.338;8.794;2022-12-15T06:42:28;99423.53;;;0.66
63158;BMP280;49381;49.338;8.794;2022-12-15T06:44:30;99430.09;;;0.64
63158;BMP280;49381;49.338;8.794;2022-12-15T06:46:32;99426.06;;;0.68
63158;BMP280;49381;49.338;8.794;2022-12-15T06:48:34;99429.19;;;0.61
63158;BMP280;49381;49.338;8.794;2022-12-15T06:50:35;99431.72;;;0.62
63158;BMP280;49381;49.338;8.794;2022-12-15T06:52:37;99431.25;;;0.48
63158;BMP280;49381;49.338;8.794;2022-12-15T06:54:37;99439.59;;;0.49
63158;BMP280;49381;49.338;8.794;2022-12-15T06:56:38;99447.00;;;0.47
63158;BMP280;49381;49.338;8.794;2022-12-15T06:58:38;99447.97;;;0.50
63158;BMP280;49381;49.338;8.794;2022-12-15T07:00:42;99448.81;;;0.50
63158;BMP280;49381;49.338;8.794;2022-12-15T07:02:42;99442.06;;;0.48
63158;BMP280;49381;49.338;8.794;2022-12-15T07:04:52;99449.00;;;0.56
63158;BMP280;49381;49.338;8.794;2022-12-15T07:06:52;99448.50;;;0.68
63158;BMP280;49381;49.338;8.794;2022-12-15T07:08:58;99453.34;;;0.63
63158;BMP280;49381;49.338;8.794;2022-12-15T07:11:19;99455.56;;;0.54
63158;BMP280;49381;49.338;8.794;2022-12-15T07:13:20;99470.34;;;0.49
63158;BMP280;49381;49.338;8.794;2022-12-15T07:15:20;99459.63;;;0.51
63158;BMP280;49381;49.338;8.794;2022-12-15T07:17:28;99466.25;;;0.50
63158;BMP280;49381;49.338;8.794;2022-12-15T07:19:28;99458.16;;;0.57
63158;BMP280;49381;49.338;8.794;2022-12-15T07:21:40;99450.06;;;0.64
63158;BMP280;49381;49.338;8.794;2022-12-15T07:23:40;99454.31;;;0.67
63158;BMP280;49381;49.338;8.794;2022-12-15T07:25:40;99452.03;;;0.74
63158;BMP280;49381;49.338;8.794;2022-12-15T07:27:41;99447.00;;;0.73
63158;BMP280;49381;49.338;8.794;2022-12-15T07:29:41;99453.75;;;0.75
63158;BMP280;49381;49.338;8.794;2022-12-15T07:31:42;99449.59;;;0.75
63158;BMP280;49381;49.338;8.794;2022-12-15T07:33:42;99446.97;;;0.71
63158;BMP280;49381;49.338;8.794;2022-12-15T07:35:51;99445.88;;;0.63
63158;BMP280;49381;49.338;8.794;2022-12-15T07:37:53;99460.47;;;0.51
63158;BMP280;49381;49.338;8.794;2022-12-15T07:40:13;99466.25;;;0.50
63158;BMP280;49381;49.338;8.794;2022-12-15T07:42:14;99461.84;;;0.44
63158;BMP280;49381;49.338;8.794;2022-12-15T07:44:14;99465.13;;;0.41
63158;BMP280;49381;49.338;8.794;2022-12-15T07:46:30;99460.88;;;0.39
63158;BMP280;49381;49.338;8.794;2022-12-15T07:48:36;99472.44;;;0.37
63158;BMP280;49381;49.338;8.794;2022-12-15T07:50:36;99462.59;;;0.15
63158;BMP280;49381;49.338;8.794;2022-12-15T07:52:37;99459.44;;;0.21
63158;BMP280;49381;49.338;8.794;2022-12-15T07:54:39;99461.16;;;-0.01
63158;BMP280;49381;49.338;8.794;2022-12-15T07:56:40;99461.59;;;0.10
63158;BMP280;49381;49.338;8.794;2022-12-15T07:58:40;99463.56;;;-0.04
63158;BMP280;49381;49.338;8.794;2022-12-15T08:00:57;99459.78;;;0.06
63158;BMP280;49381;49.338;8.794;2022-12-15T08:03:02;99458.00;;;0.02
63158;BMP280;49381;49.338;8.794;2022-12-15T08:05:03;99456.59;;;0.10
63158;BMP280;49381;49.338;8.794;2022-12-15T08:07:07;99457.53;;;0.14
63158;BMP280;49381;49.338;8.794;2022-12-15T08:09:17;99474.88;;;-0.14
63158;BMP280;49381;49.338;8.794;2022-12-15T08:11:21;99481.00;;;-0.04
63158;BMP280;49381;49.338;8.794;2022-12-15T08:13:28;99475.53;;;0.05
63158;BMP280;49381;49.338;8.794;2022-12-15T08:15:44;99480.56;;;0.07
63158;BMP280;49381;49.338;8.794;2022-12-15T08:17:46;99484.91;;;0.12
63158;BMP280;49381;49.338;8.794;2022-12-15T08:19:49;99491.16;;;0.01
63158;BMP280;49381;49.338;8.794;2022-12-15T08:22:04;99488.63;;;0.00
63158;BMP280;49381;49.338;8.794;2022-12-15T08:24:06;99500.41;;;-0.19
63158;BMP280;49381;49.338;8.794;2022-12-15T08:26:16;99523.59;;;-0.20
63158;BMP280;49381;49.338;8.794;2022-12-15T08:28:26;99534.53;;;-0.17
63158;BMP280;49381;49.338;8.794;2022-12-15T08:30:32;99543.69;;;-0.16
63158;BMP280;49381;49.338;8.794;2022-12-15T08:32:39;99550.50;;;-0.10
63158;BMP280;49381;49.338;8.794;2022-12-15T08:34:47;99553.41;;;0.00
63158;BMP280;49381;49.338;8.794;2022-12-15T08:36:53;99543.50;;;0.01
63158;BMP280;49381;49.338;8.794;2022-12-15T08:39:01;99542.03;;;0.08
63158;BMP280;49381;49.338;8.794;2022-12-15T08:41:17;99537.88;;;0.07
63158;BMP280;49381;49.338;8.794;2022-12-15T08:43:19;99542.88;;;0.08
63158;BMP280;49381;49.338;8.794;2022-12-15T08:45:43;99538.38;;;0.22
63158;BMP280;49381;49.338;8.794;2022-12-15T08:47:57;99540.34;;;0.30
63158;BMP280;49381;49.338;8.794;2022-12-15T08:52:29;99527.28;;;0.37
63158;BMP280;49381;49.338;8.794;2022-12-15T08:54:34;99525.47;;;0.33
63158;BMP280;49381;49.338;8.794;2022-12-15T08:56:58;99535.66;;;0.39
63158;BMP280;49381;49.338;8.794;2022-12-15T08:59:05;99541.56;;;0.41
63158;BMP280;49381;49.338;8.794;2022-12-15T09:01:19;99543.44;;;0.48
63158;BMP280;49381;49.338;8.794;2022-12-15T09:03:20;99539.97;;;0.44
63158;BMP280;49381;49.338;8.794;2022-12-15T09:05:23;99553.38;;;0.46
63158;BMP280;49381;49.338;8.794;2022-12-15T09:07:23;99552.56;;;0.47
63158;BMP280;49381;49.338;8.794;2022-12-15T09:09:24;99552.78;;;0.54
63158;BMP280;49381;49.338;8.794;2022-12-15T09:11:25;99561.00;;;0.50
63158;BMP280;49381;49.338;8.794;2022-12-15T09:13:26;99553.72;;;0.56
63158;BMP280;49381;49.338;8.794;2022-12-15T09:15:28;99555.28;;;0.54
63158;BMP280;49381;49.338;8.794;2022-12-15T09:17:28;99558.84;;;0.36
63158;BMP280;49381;49.338;8.794;2022-12-15T09:19:29;99551.09;;;0.29
63158;BMP280;49381;49.338;8.794;2022-12-15T09:21:30;99549.44;;;0.29
63158;BMP280;49381;49.338;8.794;2022-12-15T09:23:30;99564.28;;;0.25
63158;BMP280;49381;49.338;8.794;2022-12-15T09:25:31;99561.53;;;0.19
63158;BMP280;49381;49.338;8.794;2022-12-15T09:27:31;99562.13;;;0.12
63158;BMP280;49381;49.338;8.794;2022-12-15T09:29:32;99561.69;;;0.24
63158;BMP280;49381;49.338;8.794;2022-12-15T09:31:36;99548.84;;;0.35
63158;BMP280;49381;49.338;8.794;2022-12-15T09:33:37;99539.09;;;0.42
63158;BMP280;49381;49.338;8.794;2022-12-15T09:35:47;99531.47;;;0.38
63158;BMP280;49381;49.338;8.794;2022-12-15T09:37:53;99527.38;;;0.40
63158;BMP280;49381;49.338;8.794;2022-12-15T09:39:55;99539.25;;;0.47
63158;BMP280;49381;49.338;8.794;2022-12-15T09:42:02;99534.56;;;0.55
63158;BMP280;49381;49.338;8.794;2022-12-15T09:44:03;99538.78;;;0.58
63158;BMP280;49381;49.338;8.794;2022-12-15T09:46:22;99536.31;;;0.58
63158;BMP280;49381;49.338;8.794;2022-12-15T09:48:39;99541.56;;;0.65
63158;BMP280;49381;49.338;8.794;2022-12-15T09:50:44;99544.38;;;0.75
63158;BMP280;49381;49.338;8.794;2022-12-15T09:52:47;99551.06;;;0.76
63158;BMP280;49381;49.338;8.794;2022-12-15T09:54:49;99540.59;;;0.62
63158;BMP280;49381;49.338;8.794;2022-12-15T09:57:07;99537.44;;;0.67
63158;BMP280;49381;49.338;8.794;2022-12-15T09:59:32;99533.59;;;0.76
63158;BMP280;49381;49.338;8.794;2022-12-15T10:01:44;99517.28;;;0.86
63158;BMP280;49381;49.338;8.794;2022-12-15T10:03:55;99518.78;;;0.81
63158;BMP280;49381;49.338;8.794;2022-12-15T10:06:05;99514.78;;;0.86
63158;BMP280;49381;49.338;8.794;2022-12-15T10:08:09;99506.69;;;0.93
63158;BMP280;49381;49.338;8.794;2022-12-15T10:10:32;99505.28;;;1.00
63158;BMP280;49381;49.338;8.794;2022-12-15T10:12:36;99503.69;;;1.04
63158;BMP280;49381;49.338;8.794;2022-12-15T10:14:40;99504.75;;;1.10
63158;BMP280;49381;49.338;8.794;2022-12-15T10:16:51;99507.38;;;1.15
63158;BMP280;49381;49.338;8.794;2022-12-15T10:19:07;99503.28;;;1.17
63158;BMP280;49381;49.338;8.794;2022-12-15T10:21:13;99482.50;;;1.18
63158;BMP280;49381;49.338;8.794;2022-12-15T10:23:15;99493.28;;;1.17
63158;BMP280;49381;49.338;8.794;2022-12-15T10:25:19;99480.03;;;1.19
63158;BMP280;49381;49.338;8.794;2022-12-15T10:27:35;99486.50;;;1.13
63158;BMP280;49381;49.338;8.794;2022-12-15T10:29:44;99494.13;;;1.17
63158;BMP280;49381;49.338;8.794;2022-12-15T10:31:49;99480.25;;;1.25
63158;BMP280;49381;49.338;8.794;2022-12-15T10:34:07;99471.13;;;1.27
63158;BMP280;49381;49.338;8.794;2022-12-15T10:36:10;99480.41;;;1.31
63158;BMP280;49381;49.338;8.794;2022-12-15T10:38:21;99479.78;;;1.38
63158;BMP280;49381;49.338;8.794;2022-12-15T10:40:43;99483.78;;;1.33
63158;BMP280;49381;49.338;8.794;2022-12-15T10:42:46;99489.59;;;1.32
63158;BMP280;49381;49.338;8.794;2022-12-15T10:44:48;99496.13;;;1.28
63158;BMP280;49381;49.338;8.794;2022-12-15T10:46:53;99489.56;;;1.30
63158;BMP280;49381;49.338;8.794;2022-12-15T10:48:58;99485.47;;;1.34
63158;BMP280;49381;49.338;8.794;2022-12-15T10:51:23;99478.09;;;1.37
63158;BMP280;49381;49.338;8.794;2022-12-15T10:53:39;99484.22;;;1.48
63158;BMP280;49381;49.338;8.794;2022-12-15T10:55:41;99479.41;;;1.53
63158;BMP280;49381;49.338;8.794;2022-12-15T10:57:56;99487.97;;;1.61
63158;BMP280;49381;49.338;8.794;2022-12-15T11:00:24;99479.50;;;1.56
63158;BMP280;49381;49.338;8.794;2022-12-15T11:02:30;99476.19;;;1.57
63158;BMP280;49381;49.338;8.794;2022-12-15T11:04:31;99481.31;;;1.62
63158;BMP280;49381;49.338;8.794;2022-12-15T11:06:33;99478.72;;;1.59
63158;BMP280;49381;49.338;8.794;2022-12-15T11:08:33;99472.66;;;1.50
63158;BMP280;49381;49.338;8.794;2022-12-15T11:10:34;99471.88;;;1.52
63158;BMP280;49381;49.338;8.794;2022-12-15T11:12:35;99471.19;;;1.57
63158;BMP280;49381;49.338;8.794;2022-12-15T11:14:42;99468.94;;;1.66
63158;BMP280;49381;49.338;8.794;2022-12-15T11:16:51;99456.63;;;1.72
63158;BMP280;49381;49.338;8.794;2022-12-15T11:18:56;99440.09;;;1.77
63158;BMP280;49381;49.338;8.794;2022-12-15T11:21:01;99433.84;;;1.62
63158;BMP280;49381;49.338;8.794;2022-12-15T11:23:08;99436.44;;;1.65
63158;BMP280;49381;49.338;8.794;2022-12-15T11:25:18;99429.84;;;1.68
63158;BMP280;49381;49.338;8.794;2022-12-15T11:27:23;99425.81;;;1.73
63158;BMP280;49381;49.338;8.794;2022-12-15T11:29:28;99420.97;;;1.77
63158;BMP280;49381;49.338;8.794;2022-12-15T11:31:32;99411.97;;;1.84
63158;BMP280;49381;49.338;8.794;2022-12-15T11:33:34;99417.13;;;1.90
63158;BMP280;49381;49.338;8.794;2022-12-15T11:35:47;99417.19;;;1.93
63158;BMP280;49381;49.338;8.794;2022-12-15T11:37:55;99408.75;;;1.88
63158;BMP280;49381;49.338;8.794;2022-12-15T11:40:03;99410.47;;;1.90
63158;BMP280;49381;49.338;8.794;2022-12-15T11:42:14;99405.59;;;1.95
63158;BMP280;49381;49.338;8.794;2022-12-15T11:44:26;99403.88;;;1.92
63158;BMP280;49381;49.338;8.794;2022-12-15T11:46:29;99391.38;;;1.92
63158;BMP280;49381;49.338;8.794;2022-12-15T11:48:40;99388.25;;;1.99
63158;BMP280;49381;49.338;8.794;2022-12-15T11:50:51;99390.06;;;2.06
63158;BMP280;49381;49.338;8.794;2022-12-15T11:53:07;99387.53;;;2.04
63158;BMP280;49381;49.338;8.794;2022-12-15T11:55:17;99401.88;;;2.11
63158;BMP280;49381;49.338;8.794;2022-12-15T11:57:36;99393.59;;;2.14
63158;BMP280;49381;49.338;8.794;2022-12-15T11:59:53;99402.69;;;2.10
63158;BMP280;49381;49.338;8.794;2022-12-15T12:02:08;99407.69;;;2.10
63158;BMP280;49381;49.338;8.794;2022-12-15T12:04:17;99400.09;;;2.07
63158;BMP280;49381;49.338;8.794;2022-12-15T12:06:25;99394.22;;;2.05
63158;BMP280;49381;49.338;8.794;2022-12-15T12:08:42;99385.91;;;2.06